sensor_id;sensor_type;location;lat;lon;timestamp;pressure;altitude;pressure_sealevel;temperature;humidity
58955;BME280;45815;52.334;5.024;2023-01-16T00:00:26;99579.34;;;4.46;100.00
58955;BME280;45815;52.334;5.024;2023-01-16T00:02:51;99579.28;;;4.44;100.00
58955;BME280;45815;52.334;5.024;2023-01-16T00:05:16;99577.59;;;4.47;100.00
58955;BME280;45815;52.334;5.024;2023-01-16T00:07:42;99574.19;;;4.48;100.00
58955;BME280;45815;52.334;5.024;2023-01-16T00:10:08;99552.59;;;4.52;100.00
58955;BME280;45815;52.334;5.024;2023-01-16T00:12:33;99532.50;;;4.43;100.00
58955;BME280;45815;52.334;5.024;2023-01-16T00:14:58;99533.53;;;4.50;100.00
58955;BME280;45815;52.334;5.024;2023-01-16T00:17:24;99540.34;;;4.46;100.00
58955;BME280;45815;52.334;5.024;2023-01-16T00:19:49;99523.84;;;4.42;100.00
58955;BME280;45815;52.334;5.024;2023-01-16T00:22:15;99533.44;;;4.47;100.00
58955;BME280;45815;52.334;5.024;2023-01-16T00:24:40;99529.22;;;4.52;100.00
58955;BME280;45815;52.334;5.024;2023-01-16T00:27:05;99521.31;;;4.46;100.00
58955;BME280;45815;52.334;5.024;2023-01-16T00:29:31;99514.47;;;4.51;100.00
58955;BME280;45815;52.334;5.024;2023-01-16T00:31:56;99496.25;;;4.48;100.00
58955;BME280;45815;52.334;5.024;2023-01-16T00:34:21;99502.41;;;4.53;100.00
58955;BME280;45815;52.334;5.024;2023-01-16T00:36:47;99495.31;;;4.46;100.00
58955;BME280;45815;52.334;5.024;2023-01-16T00:39:12;99501.34;;;4.44;100.00
58955;BME280;45815;52.334;5.024;2023-01-16T00:41:38;99476.88;;;4.33;100.00
58955;BME280;45815;52.334;5.024;2023-01-16T00:44:03;99479.63;;;4.41;100.00
58955;BME280;45815;52.334;5.024;2023-01-16T00:46:29;99475.22;;;4.37;100.00
58955;BME280;45815;52.334;5.024;2023-01-16T00:48:55;99468.97;;;4.29;100.00
58955;BME280;45815;52.334;5.024;2023-01-16T00:51:21;99446.22;;;4.18;100.00
58955;BME280;45815;52.334;5.024;2023-01-16T00:53:47;99455.94;;;4.27;100.00
58955;BME280;45815;52.334;5.024;2023-01-16T00:56:12;99456.72;;;4.23;100.00
58955;BME280;45815;52.334;5.024;2023-01-16T00:58:38;99453.16;;;4.18;100.00
58955;BME280;45815;52.334;5.024;2023-01-16T01:01:04;99448.81;;;4.18;100.00
58955;BME280;45815;52.334;5.024;2023-01-16T01:03:29;99443.47;;;4.11;100.00
58955;BME280;45815;52.334;5.024;2023-01-16T01:05:55;99432.03;;;4.02;100.00
58955;BME280;45815;52.334;5.024;2023-01-16T01:08:20;99433.03;;;4.08;100.00
58955;BME280;45815;52.334;5.024;2023-01-16T01:10:46;99425.13;;;4.03;100.00
58955;BME280;45815;52.334;5.024;2023-01-16T01:13:12;99418.16;;;4.02;100.00
58955;BME280;45815;52.334;5.024;2023-01-16T01:15:38;99420.75;;;4.00;100.00
58955;BME280;45815;52.334;5.024;2023-01-16T01:18:04;99422.44;;;3.98;100.00
58955;BME280;45815;52.334;5.024;2023-01-16T01:20:30;99412.78;;;3.93;100.00
58955;BME280;45815;52.334;5.024;2023-01-16T01:22:55;99411.84;;;3.89;100.00
58955;BME280;45815;52.334;5.024;2023-01-16T01:25:21;99411.84;;;3.89;100.00
58955;BME280;45815;52.334;5.024;2023-01-16T01:27:46;99403.72;;;3.75;100.00
58955;BME280;45815;52.334;5.024;2023-01-16T01:30:12;99378.22;;;3.57;100.00
58955;BME280;45815;52.334;5.024;2023-01-16T01:32:37;99398.38;;;3.68;100.00
58955;BME280;45815;52.334;5.024;2023-01-16T01:35:05;99396.50;;;3.62;100.00
58955;BME280;45815;52.334;5.024;2023-01-16T01:37:30;99384.38;;;3.63;100.00
58955;BME280;45815;52.334;5.024;2023-01-16T01:39:55;99376.56;;;3.59;100.00
58955;BME280;45815;52.334;5.024;2023-01-16T01:42:21;99369.53;;;3.55;100.00
58955;BME280;45815;52.334;5.024;2023-01-16T01:45:17;99358.09;;;3.47;100.00
58955;BME280;45815;52.334;5.024;2023-01-16T01:48:33;99356.44;;;3.49;100.00
58955;BME280;45815;52.334;5.024;2023-01-16T01:50:47;99363.00;;;3.35;100.00
58955;BME280;45815;52.334;5.024;2023-01-16T01:53:25;99354.44;;;3.39;100.00
58955;BME280;45815;52.334;5.024;2023-01-16T01:55:51;99350.13;;;3.38;100.00
58955;BME280;45815;52.334;5.024;2023-01-16T01:58:20;99346.66;;;3.39;100.00
58955;BME280;45815;52.334;5.024;2023-01-16T02:00:54;99349.31;;;3.41;100.00
58955;BME280;45815;52.334;5.024;2023-01-16T02:03:48;99341.25;;;3.30;100.00
58955;BME280;45815;52.334;5.024;2023-01-16T02:06:20;99338.66;;;3.30;100.00
58955;BME280;45815;52.334;5.024;2023-01-16T02:08:48;99330.06;;;3.32;100.00
58955;BME280;45815;52.334;5.024;2023-01-16T02:11:36;99313.38;;;3.20;100.00
58955;BME280;45815;52.334;5.024;2023-01-16T02:14:12;99330.88;;;3.30;100.00
58955;BME280;45815;52.334;5.024;2023-01-16T02:16:38;99321.53;;;3.36;100.00
58955;BME280;45815;52.334;5.024;2023-01-16T02:19:43;99316.22;;;3.30;100.00
58955;BME280;45815;52.334;5.024;2023-01-16T02:22:40;99312.72;;;3.28;100.00
58955;BME280;45815;52.334;5.024;2023-01-16T02:31:10;99300.56;;;3.26;100.00
58955;BME280;45815;52.334;5.024;2023-01-16T02:36:31;99291.09;;;3.28;100.00
58955;BME280;45815;52.334;5.024;2023-01-16T02:44:18;99289.28;;;3.24;100.00
58955;BME280;45815;52.334;5.024;2023-01-16T02:46:56;99279.63;;;3.18;100.00
58955;BME280;45815;52.334;5.024;2023-01-16T02:49:38;99288.88;;;3.07;100.00
58955;BME280;45815;52.334;5.024;2023-01-16T02:52:08;99285.47;;;3.09;100.00
58955;BME280;45815;52.334;5.024;2023-01-16T02:54:42;99269.63;;;2.97;100.00
58955;BME280;45815;52.334;5.024;2023-01-16T02:57:16;99268.09;;;3.05;100.00
58955;BME280;45815;52.334;5.024;2023-01-16T02:59:42;99262.09;;;3.08;100.00
58955;BME280;45815;52.334;5.024;2023-01-16T03:02:08;99258.88;;;3.18;100.00
58955;BME280;45815;52.334;5.024;2023-01-16T03:04:48;99263.25;;;3.21;100.00
58955;BME280;45815;52.334;5.024;2023-01-16T03:10:34;99244.13;;;3.15;100.00
58955;BME280;45815;52.334;5.024;2023-01-16T03:19:17;99217.59;;;3.26;100.00
58955;BME280;45815;52.334;5.024;2023-01-16T03:22:14;99208.94;;;3.27;100.00
58955;BME280;45815;52.334;5.024;2023-01-16T03:25:11;99189.94;;;3.26;100.00
58955;BME280;45815;52.334;5.024;2023-01-16T03:28:03;99175.25;;;3.27;100.00
58955;BME280;45815;52.334;5.024;2023-01-16T03:36:03;99154.44;;;3.24;100.00
58955;BME280;45815;52.334;5.024;2023-01-16T03:38:32;99150.16;;;3.26;100.00
58955;BME280;45815;52.334;5.024;2023-01-16T03:41:03;99137.22;;;3.27;100.00
58955;BME280;45815;52.334;5.024;2023-01-16T03:43:32;99125.78;;;3.17;100.00
58955;BME280;45815;52.334;5.024;2023-01-16T03:46:04;99135.53;;;3.28;100.00
58955;BME280;45815;52.334;5.024;2023-01-16T03:48:38;99141.59;;;3.28;100.00
58955;BME280;45815;52.334;5.024;2023-01-16T03:51:07;99140.66;;;3.26;100.00
58955;BME280;45815;52.334;5.024;2023-01-16T03:53:39;99138.06;;;3.26;100.00
58955;BME280;45815;52.334;5.024;2023-01-16T03:56:14;99130.31;;;3.26;100.00
58955;BME280;45815;52.334;5.024;2023-01-16T03:58:43;99124.25;;;3.27;100.00
58955;BME280;45815;52.334;5.024;2023-01-16T04:01:28;99114.69;;;3.25;100.00
58955;BME280;45815;52.334;5.024;2023-01-16T04:04:04;99097.47;;;3.27;100.00
58955;BME280;45815;52.334;5.024;2023-01-16T04:06:41;99094.06;;;3.29;100.00
58955;BME280;45815;52.334;5.024;2023-01-16T04:09:57;99082.88;;;3.32;100.00
58955;BME280;45815;52.334;5.024;2023-01-16T04:11:58;99082.88;;;3.32;100.00
58955;BME280;45815;52.334;5.024;2023-01-16T04:14:25;99076.84;;;3.33;100.00
58955;BME280;45815;52.334;5.024;2023-01-16T04:16:51;99068.22;;;3.34;100.00
58955;BME280;45815;52.334;5.024;2023-01-16T04:19:18;99066.53;;;3.36;100.00
58955;BME280;45815;52.334;5.024;2023-01-16T04:21:46;99055.28;;;3.37;100.00
58955;BME280;45815;52.334;5.024;2023-01-16T04:24:12;99050.09;;;3.37;100.00
58955;BME280;45815;52.334;5.024;2023-01-16T04:26:38;99038.81;;;3.33;100.00
58955;BME280;45815;52.334;5.024;2023-01-16T04:29:03;99041.50;;;3.38;100.00
58955;BME280;45815;52.334;5.024;2023-01-16T04:31:29;99037.22;;;3.40;100.00
58955;BME280;45815;52.334;5.024;2023-01-16T04:33:54;99031.16;;;3.40;100.00
58955;BME280;45815;52.334;5.024;2023-01-16T04:36:21;99003.38;;;3.34;100.00
58955;BME280;45815;52.334;5.024;2023-01-16T04:38:46;99006.09;;;3.42;100.00
58955;BME280;45815;52.334;5.024;2023-01-16T04:41:12;99000.91;;;3.40;100.00
58955;BME280;45815;52.334;5.024;2023-01-16T04:43:37;98988.84;;;3.42;100.00
58955;BME280;45815;52.334;5.024;2023-01-16T04:46:02;98986.34;;;3.47;100.00
58955;BME280;45815;52.334;5.024;2023-01-16T04:48:28;98971.66;;;3.47;100.00
58955;BME280;45815;52.334;5.024;2023-01-16T04:50:53;98967.38;;;3.49;100.00
58955;BME280;45815;52.334;5.024;2023-01-16T04:53:19;98962.19;;;3.49;100.00
58955;BME280;45815;52.334;5.024;2023-01-16T04:55:44;98950.94;;;3.50;100.00
58955;BME280;45815;52.334;5.024;2023-01-16T04:58:09;98943.19;;;3.52;100.00
58955;BME280;45815;52.334;5.024;2023-01-16T05:00:35;98936.31;;;3.54;100.00
58955;BME280;45815;52.334;5.024;2023-01-16T05:03:01;98919.00;;;3.53;100.00
58955;BME280;45815;52.334;5.024;2023-01-16T05:05:26;98917.22;;;3.50;100.00
58955;BME280;45815;52.334;5.024;2023-01-16T05:07:51;98923.34;;;3.55;100.00
58955;BME280;45815;52.334;5.024;2023-01-16T05:10:36;98906.09;;;3.56;100.00
58955;BME280;45815;52.334;5.024;2023-01-16T05:13:01;98900.03;;;3.57;100.00
58955;BME280;45815;52.334;5.024;2023-01-16T05:15:27;98890.53;;;3.57;100.00
58955;BME280;45815;52.334;5.024;2023-01-16T05:17:52;98882.75;;;3.57;100.00
58955;BME280;45815;52.334;5.024;2023-01-16T05:20:19;98869.78;;;3.57;100.00
58955;BME280;45815;52.334;5.024;2023-01-16T05:22:45;98859.47;;;3.61;100.00
58955;BME280;45815;52.334;5.024;2023-01-16T05:25:10;98855.13;;;3.59;100.00
58955;BME280;45815;52.334;5.024;2023-01-16T05:27:35;98849.97;;;3.61;100.00
58955;BME280;45815;52.334;5.024;2023-01-16T05:30:01;98847.38;;;3.63;100.00
58955;BME280;45815;52.334;5.024;2023-01-16T05:32:26;98830.00;;;3.57;100.00
58955;BME280;45815;52.334;5.024;2023-01-16T05:34:51;98830.09;;;3.65;100.00
58955;BME280;45815;52.334;5.024;2023-01-16T05:37:18;98819.78;;;3.68;100.00
58955;BME280;45815;52.334;5.024;2023-01-16T05:39:43;98809.41;;;3.68;100.00
58955;BME280;45815;52.334;5.024;2023-01-16T05:42:10;98799.06;;;3.71;100.00
58955;BME280;45815;52.334;5.024;2023-01-16T05:44:49;98800.81;;;3.72;100.00
58955;BME280;45815;52.334;5.024;2023-01-16T05:47:14;98783.53;;;3.74;100.00
58955;BME280;45815;52.334;5.024;2023-01-16T05:49:39;98771.47;;;3.76;100.00
58955;BME280;45815;52.334;5.024;2023-01-16T05:52:05;98768.03;;;3.77;100.00
58955;BME280;45815;52.334;5.024;2023-01-16T05:54:30;98737.66;;;3.71;100.00
58955;BME280;45815;52.334;5.024;2023-01-16T05:56:56;98749.06;;;3.83;100.00
58955;BME280;45815;52.334;5.024;2023-01-16T05:59:21;98736.94;;;3.83;100.00
58955;BME280;45815;52.334;5.024;2023-01-16T06:01:46;98730.94;;;3.87;100.00
58955;BME280;45815;52.334;5.024;2023-01-16T06:04:12;98712.78;;;3.87;100.00
58955;BME280;45815;52.334;5.024;2023-01-16T06:06:37;98723.28;;;3.96;100.00
58955;BME280;45815;52.334;5.024;2023-01-16T06:09:03;98713.72;;;3.95;100.00
58955;BME280;45815;52.334;5.024;2023-01-16T06:11:28;98706.84;;;3.96;100.00
58955;BME280;45815;52.334;5.024;2023-01-16T06:13:53;98700.81;;;3.98;100.00
58955;BME280;45815;52.334;5.024;2023-01-16T06:16:19;98675.63;;;3.91;100.00
58955;BME280;45815;52.334;5.024;2023-01-16T06:18:45;98681.75;;;3.96;100.00
58955;BME280;45815;52.334;5.024;2023-01-16T06:21:10;98682.69;;;4.03;100.00
58955;BME280;45815;52.334;5.024;2023-01-16T06:23:35;98685.31;;;4.08;100.00
58955;BME280;45815;52.334;5.024;2023-01-16T06:26:01;98675.84;;;4.10;100.00
58955;BME280;45815;52.334;5.024;2023-01-16T06:28:28;98666.31;;;4.12;100.00
58955;BME280;45815;52.334;5.024;2023-01-16T06:30:53;98660.28;;;4.13;100.00
58955;BME280;45815;52.334;5.024;2023-01-16T06:33:19;98661.16;;;4.15;100.00
58955;BME280;45815;52.334;5.024;2023-01-16T06:35:44;98656.00;;;4.21;100.00
58955;BME280;45815;52.334;5.024;2023-01-16T06:38:10;98643.06;;;4.24;100.00
58955;BME280;45815;52.334;5.024;2023-01-16T06:40:35;98639.63;;;4.27;100.00
58955;BME280;45815;52.334;5.024;2023-01-16T06:43:00;98644.00;;;4.32;100.00
58955;BME280;45815;52.334;5.024;2023-01-16T06:45:26;98634.50;;;4.34;100.00
58955;BME280;45815;52.334;5.024;2023-01-16T06:47:52;98634.50;;;4.37;100.00
58955;BME280;45815;52.334;5.024;2023-01-16T06:50:18;98634.56;;;4.40;100.00
58955;BME280;45815;52.334;5.024;2023-01-16T06:52:47;98624.13;;;4.37;100.00
58955;BME280;45815;52.334;5.024;2023-01-16T06:55:12;98630.25;;;4.42;100.00
58955;BME280;45815;52.334;5.024;2023-01-16T06:57:39;98625.91;;;4.44;100.00
58955;BME280;45815;52.334;5.024;2023-01-16T07:00:05;98612.88;;;4.40;100.00
58955;BME280;45815;52.334;5.024;2023-01-16T07:02:30;98621.66;;;4.50;100.00
58955;BME280;45815;52.334;5.024;2023-01-16T07:04:55;98614.72;;;4.52;100.00
58955;BME280;45815;52.334;5.024;2023-01-16T07:07:21;98612.09;;;4.52;100.00
58955;BME280;45815;52.334;5.024;2023-01-16T07:09:46;98600.91;;;4.54;100.00
58955;BME280;45815;52.334;5.024;2023-01-16T07:12:12;98592.25;;;4.57;100.00
58955;BME280;45815;52.334;5.024;2023-01-16T07:14:37;98577.50;;;4.56;100.00
58955;BME280;45815;52.334;5.024;2023-01-16T07:17:21;98569.72;;;4.57;100.00
58955;BME280;45815;52.334;5.024;2023-01-16T07:20:05;98556.75;;;4.60;100.00
58955;BME280;45815;52.334;5.024;2023-01-16T07:22:49;98557.66;;;4.67;100.00
58955;BME280;45815;52.334;5.024;2023-01-16T07:25:21;98557.69;;;4.69;100.00
58955;BME280;45815;52.334;5.024;2023-01-16T07:27:49;98553.38;;;4.74;100.00
58955;BME280;45815;52.334;5.024;2023-01-16T07:30:16;98543.84;;;4.77;100.00
58955;BME280;45815;52.334;5.024;2023-01-16T07:32:42;98536.94;;;4.79;100.00
58955;BME280;45815;52.334;5.024;2023-01-16T07:35:08;98527.41;;;4.81;100.00
58955;BME280;45815;52.334;5.024;2023-01-16T07:37:33;98517.91;;;4.80;100.00
58955;BME280;45815;52.334;5.024;2023-01-16T07:39:59;98508.38;;;4.81;100.00
58955;BME280;45815;52.334;5.024;2023-01-16T07:42:24;98500.53;;;4.79;100.00
58955;BME280;45815;52.334;5.024;2023-01-16T07:44:50;98500.53;;;4.79;100.00
58955;BME280;45815;52.334;5.024;2023-01-16T07:47:15;98491.00;;;4.80;100.00
58955;BME280;45815;52.334;5.024;2023-01-16T07:49:41;98485.00;;;4.82;100.00
58955;BME280;45815;52.334;5.024;2023-01-16T07:52:06;98484.09;;;4.82;100.00
58955;BME280;45815;52.334;5.024;2023-01-16T07:54:31;98480.66;;;4.83;100.00
58955;BME280;45815;52.334;5.024;2023-01-16T07:57:00;98474.59;;;4.82;100.00
58955;BME280;45815;52.334;5.024;2023-01-16T07:59:26;98468.50;;;4.79;100.00
58955;BME280;45815;52.334;5.024;2023-01-16T08:01:51;98465.88;;;4.74;100.00
58955;BME280;45815;52.334;5.024;2023-01-16T08:04:17;98451.16;;;4.73;100.00
58955;BME280;45815;52.334;5.024;2023-01-16T08:06:42;98456.38;;;4.73;100.00
58955;BME280;45815;52.334;5.024;2023-01-16T08:09:10;98442.47;;;4.73;100.00
58955;BME280;45815;52.334;5.024;2023-01-16T08:11:36;98432.97;;;4.72;100.00
58955;BME280;45815;52.334;5.024;2023-01-16T08:14:06;98430.34;;;4.70;100.00
58955;BME280;45815;52.334;5.024;2023-01-16T08:16:32;98418.22;;;4.72;100.00
58955;BME280;45815;52.334;5.024;2023-01-16T08:18:57;98400.03;;;4.69;100.00
58955;BME280;45815;52.334;5.024;2023-01-16T08:21:23;98394.00;;;4.69;100.00
58955;BME280;45815;52.334;5.024;2023-01-16T08:23:48;98378.41;;;4.69;100.00
58955;BME280;45815;52.334;5.024;2023-01-16T08:26:14;98367.13;;;4.65;100.00
58955;BME280;45815;52.334;5.024;2023-01-16T08:28:40;98361.03;;;4.63;100.00
58955;BME280;45815;52.334;5.024;2023-01-16T08:31:07;98351.53;;;4.62;100.00
58955;BME280;45815;52.334;5.024;2023-01-16T08:33:42;98352.38;;;4.59;100.00
58955;BME280;45815;52.334;5.024;2023-01-16T08:36:09;98335.03;;;4.58;100.00
58955;BME280;45815;52.334;5.024;2023-01-16T08:38:35;98329.88;;;4.63;100.00
58955;BME280;45815;52.334;5.024;2023-01-16T08:41:01;98324.66;;;4.63;100.00
58955;BME280;45815;52.334;5.024;2023-01-16T08:43:26;98316.88;;;4.63;100.00
58955;BME280;45815;52.334;5.024;2023-01-16T08:46:19;98310.81;;;4.58;100.00
58955;BME280;45815;52.334;5.024;2023-01-16T08:49:08;98304.72;;;4.56;100.00
58955;BME280;45815;52.334;5.024;2023-01-16T08:51:54;98296.09;;;4.57;100.00
58955;BME280;45815;52.334;5.024;2023-01-16T08:54:19;98295.22;;;4.58;100.00
58955;BME280;45815;52.334;5.024;2023-01-16T08:56:45;98286.56;;;4.65;100.00
58955;BME280;45815;52.334;5.024;2023-01-16T08:59:10;98283.97;;;4.65;100.00
58955;BME280;45815;52.334;5.024;2023-01-16T09:01:37;98277.03;;;4.61;100.00
58955;BME280;45815;52.334;5.024;2023-01-16T09:04:04;98282.25;;;4.64;100.00
58955;BME280;45815;52.334;5.024;2023-01-16T09:06:30;98277.94;;;4.66;100.00
58955;BME280;45815;52.334;5.024;2023-01-16T09:08:55;98279.66;;;4.64;100.00
58955;BME280;45815;52.334;5.024;2023-01-16T09:11:21;98273.59;;;4.67;100.00
58955;BME280;45815;52.334;5.024;2023-01-16T09:14:05;98264.06;;;4.69;100.00
58955;BME280;45815;52.334;5.024;2023-01-16T09:16:30;98263.22;;;4.71;100.00
58955;BME280;45815;52.334;5.024;2023-01-16T09:18:56;98255.41;;;4.71;100.00
58955;BME280;45815;52.334;5.024;2023-01-16T09:21:21;98250.19;;;4.73;100.00
58955;BME280;45815;52.334;5.024;2023-01-16T09:23:50;98241.56;;;4.78;100.00
58955;BME280;45815;52.334;5.024;2023-01-16T09:26:17;98236.34;;;4.77;100.00
58955;BME280;45815;52.334;5.024;2023-01-16T09:28:42;98231.16;;;4.81;100.00
58955;BME280;45815;52.334;5.024;2023-01-16T09:31:08;98238.94;;;4.89;100.00
58955;BME280;45815;52.334;5.024;2023-01-16T09:33:34;98216.44;;;4.93;100.00
58955;BME280;45815;52.334;5.024;2023-01-16T09:35:59;98214.69;;;4.89;100.00
58955;BME280;45815;52.334;5.024;2023-01-16T09:38:25;98206.88;;;4.93;100.00
58955;BME280;45815;52.334;5.024;2023-01-16T09:40:56;98202.56;;;4.91;100.00
58955;BME280;45815;52.334;5.024;2023-01-16T09:46:35;98194.75;;;4.84;100.00
58955;BME280;45815;52.334;5.024;2023-01-16T09:49:11;98185.25;;;4.90;100.00
58955;BME280;45815;52.334;5.024;2023-01-16T09:51:47;98181.78;;;4.88;100.00
58955;BME280;45815;52.334;5.024;2023-01-16T09:54:42;98170.50;;;4.90;100.00
58955;BME280;45815;52.334;5.024;2023-01-16T09:57:31;98147.13;;;4.89;100.00
58955;BME280;45815;52.334;5.024;2023-01-16T10:00:17;98152.28;;;4.98;100.00
58955;BME280;45815;52.334;5.024;2023-01-16T10:02:43;98154.00;;;5.05;100.00
58955;BME280;45815;52.334;5.024;2023-01-16T10:05:10;98144.50;;;5.04;100.00
58955;BME280;45815;52.334;5.024;2023-01-16T10:10:32;98144.47;;;5.18;100.00
58955;BME280;45815;52.334;5.024;2023-01-16T10:15:51;98125.38;;;5.17;100.00
58955;BME280;45815;52.334;5.024;2023-01-16T10:26:56;98114.09;;;5.24;100.00
58955;BME280;45815;52.334;5.024;2023-01-16T10:35:12;98107.13;;;5.33;100.00
58955;BME280;45815;52.334;5.024;2023-01-16T10:37:39;98092.38;;;5.33;100.00
58955;BME280;45815;52.334;5.024;2023-01-16T10:40:13;98083.78;;;5.19;100.00
58955;BME280;45815;52.334;5.024;2023-01-16T10:42:41;98084.63;;;5.22;100.00
58955;BME280;45815;52.334;5.024;2023-01-16T10:45:32;98081.16;;;5.25;100.00
58955;BME280;45815;52.334;5.024;2023-01-16T10:48:17;98078.56;;;5.25;100.00
58955;BME280;45815;52.334;5.024;2023-01-16T10:51:02;98071.66;;;5.15;100.00
58955;BME280;45815;52.334;5.024;2023-01-16T10:53:30;98069.06;;;5.10;100.00
58955;BME280;45815;52.334;5.024;2023-01-16T10:55:57;98064.78;;;4.95;100.00
58955;BME280;45815;52.334;5.024;2023-01-16T11:01:02;98072.66;;;4.78;100.00
58955;BME280;45815;52.334;5.024;2023-01-16T11:03:33;98058.81;;;4.73;100.00
58955;BME280;45815;52.334;5.024;2023-01-16T11:06:08;98051.03;;;4.56;100.00
58955;BME280;45815;52.334;5.024;2023-01-16T11:08:34;98044.97;;;4.56;100.00
58955;BME280;45815;52.334;5.024;2023-01-16T11:11:00;98025.97;;;4.38;100.00
58955;BME280;45815;52.334;5.024;2023-01-16T11:13:27;98025.09;;;4.39;100.00
58955;BME280;45815;52.334;5.024;2023-01-16T11:18:55;98023.38;;;4.48;100.00
58955;BME280;45815;52.334;5.024;2023-01-16T11:21:30;98021.63;;;4.43;100.00
58955;BME280;45815;52.334;5.024;2023-01-16T11:24:03;98018.16;;;4.44;100.00
58955;BME280;45815;52.334;5.024;2023-01-16T11:26:29;98012.97;;;4.48;100.00
58955;BME280;45815;52.334;5.024;2023-01-16T11:28:56;98009.50;;;4.55;100.00
58955;BME280;45815;52.334;5.024;2023-01-16T11:31:25;98001.69;;;4.59;100.00
58955;BME280;45815;52.334;5.024;2023-01-16T11:33:59;97990.44;;;4.57;100.00
58955;BME280;45815;52.334;5.024;2023-01-16T11:36:31;97982.63;;;4.62;100.00
58955;BME280;45815;52.334;5.024;2023-01-16T11:39:01;97986.06;;;4.65;100.00
58955;BME280;45815;52.334;5.024;2023-01-16T11:41:37;97985.19;;;4.70;100.00
58955;BME280;45815;52.334;5.024;2023-01-16T11:44:15;97983.44;;;4.76;100.00
58955;BME280;45815;52.334;5.024;2023-01-16T11:47:00;97974.78;;;4.80;100.00
58955;BME280;45815;52.334;5.024;2023-01-16T11:49:45;97951.41;;;4.68;100.00
58955;BME280;45815;52.334;5.024;2023-01-16T11:52:13;97972.16;;;4.83;100.00
58955;BME280;45815;52.334;5.024;2023-01-16T11:54:39;97969.53;;;4.82;100.00
58955;BME280;45815;52.334;5.024;2023-01-16T12:08:30;97939.22;;;4.92;100.00
58955;BME280;45815;52.334;5.024;2023-01-16T12:16:41;97933.94;;;5.04;100.00
58955;BME280;45815;52.334;5.024;2023-01-16T12:22:33;97915.72;;;5.07;100.00
58955;BME280;45815;52.334;5.024;2023-01-16T12:30:37;97906.09;;;5.18;100.00
58955;BME280;45815;52.334;5.024;2023-01-16T12:33:13;97898.25;;;5.26;100.00
58955;BME280;45815;52.334;5.024;2023-01-16T12:36:15;97895.63;;;5.31;100.00
58955;BME280;45815;52.334;5.024;2023-01-16T12:39:02;97887.78;;;5.35;100.00
58955;BME280;45815;52.334;5.024;2023-01-16T12:41:38;97887.75;;;5.38;100.00
58955;BME280;45815;52.334;5.024;2023-01-16T12:44:45;97881.69;;;5.38;100.00
58955;BME280;45815;52.334;5.024;2023-01-16T12:50:06;97879.91;;;5.46;100.00
58955;BME280;45815;52.334;5.024;2023-01-16T12:58:02;97864.34;;;5.40;100.00
58955;BME280;45815;52.334;5.024;2023-01-16T13:00:59;97867.75;;;5.45;100.00
58955;BME280;45815;52.334;5.024;2023-01-16T13:03:39;97860.81;;;5.47;100.00
58955;BME280;45815;52.334;5.024;2023-01-16T13:06:15;97853.88;;;5.46;100.00
58955;BME280;45815;52.334;5.024;2023-01-16T13:08:49;97853.91;;;5.43;100.00
58955;BME280;45815;52.334;5.024;2023-01-16T13:11:31;97836.63;;;5.39;100.00
58955;BME280;45815;52.334;5.024;2023-01-16T13:14:18;97844.34;;;5.48;100.00
58955;BME280;45815;52.334;5.024;2023-01-16T13:16:59;97837.31;;;5.55;100.00
58955;BME280;45815;52.334;5.024;2023-01-16T13:19:27;97817.41;;;5.52;100.00
58955;BME280;45815;52.334;5.024;2023-01-16T13:21:56;97826.00;;;5.60;100.00
58955;BME280;45815;52.334;5.024;2023-01-16T13:24:29;97832.09;;;5.58;100.00
58955;BME280;45815;52.334;5.024;2023-01-16T13:27:00;97817.44;;;5.49;100.00
58955;BME280;45815;52.334;5.024;2023-01-16T13:29:39;97824.25;;;5.62;100.00
58955;BME280;45815;52.334;5.024;2023-01-16T13:34:48;97825.91;;;5.66;100.00
58955;BME280;45815;52.334;5.024;2023-01-16T13:43:22;97819.91;;;5.63;100.00
58955;BME280;45815;52.334;5.024;2023-01-16T13:46:08;97822.47;;;5.67;100.00
58955;BME280;45815;52.334;5.024;2023-01-16T13:48:35;97822.41;;;5.70;100.00
58955;BME280;45815;52.334;5.024;2023-01-16T13:51:14;97813.75;;;5.71;100.00
58955;BME280;45815;52.334;5.024;2023-01-16T13:53:41;97814.59;;;5.74;100.00
58955;BME280;45815;52.334;5.024;2023-01-16T13:56:22;97801.59;;;5.72;100.00
58955;BME280;45815;52.334;5.024;2023-01-16T13:58:54;97813.66;;;5.79;100.00
58955;BME280;45815;52.334;5.024;2023-01-16T14:01:35;97804.13;;;5.78;100.00
58955;BME280;45815;52.334;5.024;2023-01-16T14:10:15;97799.78;;;5.79;100.00
58955;BME280;45815;52.334;5.024;2023-01-16T14:12:58;97797.94;;;5.87;100.00
58955;BME280;45815;52.334;5.024;2023-01-16T14:15:25;97803.16;;;5.87;100.00
58955;BME280;45815;52.334;5.024;2023-01-16T14:18:20;97798.81;;;5.87;100.00
58955;BME280;45815;52.334;5.024;2023-01-16T14:20:50;97802.31;;;5.88;100.00
58955;BME280;45815;52.334;5.024;2023-01-16T14:23:29;97792.75;;;5.87;100.00
58955;BME280;45815;52.334;5.024;2023-01-16T14:26:18;97793.59;;;5.90;100.00
58955;BME280;45815;52.334;5.024;2023-01-16T14:28:49;97790.94;;;5.92;100.00
58955;BME280;45815;52.334;5.024;2023-01-16T14:31:23;97793.56;;;5.92;100.00
58955;BME280;45815;52.334;5.024;2023-01-16T14:33:50;97789.22;;;5.96;100.00
58955;BME280;45815;52.334;5.024;2023-01-16T14:36:21;97790.06;;;5.96;100.00
58955;BME280;45815;52.334;5.024;2023-01-16T14:38:48;97784.88;;;5.98;100.00
58955;BME280;45815;52.334;5.024;2023-01-16T14:41:16;97776.22;;;5.89;100.00
58955;BME280;45815;52.334;5.024;2023-01-16T14:44:13;97785.75;;;5.95;100.00
58955;BME280;45815;52.334;5.024;2023-01-16T14:47:24;97780.59;;;5.89;100.00
58955;BME280;45815;52.334;5.024;2023-01-16T14:50:14;97776.16;;;6.00;100.00
58955;BME280;45815;52.334;5.024;2023-01-16T14:58:19;97761.38;;;5.99;100.00
58955;BME280;45815;52.334;5.024;2023-01-16T15:00:47;97758.78;;;6.01;100.00
58955;BME280;45815;52.334;5.024;2023-01-16T15:03:21;97770.94;;;5.99;100.00
58955;BME280;45815;52.334;5.024;2023-01-16T15:05:58;97763.19;;;5.96;100.00
58955;BME280;45815;52.334;5.024;2023-01-16T15:08:33;97762.28;;;5.97;100.00
58955;BME280;45815;52.334;5.024;2023-01-16T15:11:07;97764.06;;;5.95;100.00